sensor_id;sensor_type;location;lat;lon;timestamp;temperature;humidity
5930;DHT22;2990;48.746;9.236;2023-05-29T00:00:59;16.90;35.20
5930;DHT22;2990;48.746;9.236;2023-05-29T00:03:25;16.80;38.40
5930;DHT22;2990;48.746;9.236;2023-05-29T00:05:53;16.70;40.10
5930;DHT22;2990;48.746;9.236;2023-05-29T00:08:19;16.70;42.30
5930;DHT22;2990;48.746;9.236;2023-05-29T00:10:44;16.50;44.00
5930;DHT22;2990;48.746;9.236;2023-05-29T00:13:10;16.50;44.10
5930;DHT22;2990;48.746;9.236;2023-05-29T00:15:36;16.40;46.50
5930;DHT22;2990;48.746;9.236;2023-05-29T00:18:02;16.40;47.50
5930;DHT22;2990;48.746;9.236;2023-05-29T00:20:27;16.20;51.30
5930;DHT22;2990;48.746;9.236;2023-05-29T00:22:53;16.10;50.80
5930;DHT22;2990;48.746;9.236;2023-05-29T00:25:19;16.10;53.40
5930;DHT22;2990;48.746;9.236;2023-05-29T00:27:44;16.10;55.30
5930;DHT22;2990;48.746;9.236;2023-05-29T00:30:12;16.00;54.30
5930;DHT22;2990;48.746;9.236;2023-05-29T00:32:38;16.00;56.20
5930;DHT22;2990;48.746;9.236;2023-05-29T00:35:04;15.90;57.20
5930;DHT22;2990;48.746;9.236;2023-05-29T00:37:30;15.90;58.00
5930;DHT22;2990;48.746;9.236;2023-05-29T00:39:56;15.80;61.10
5930;DHT22;2990;48.746;9.236;2023-05-29T00:42:22;15.80;60.90
5930;DHT22;2990;48.746;9.236;2023-05-29T00:44:47;15.80;62.00
5930;DHT22;2990;48.746;9.236;2023-05-29T00:47:13;15.80;62.90
5930;DHT22;2990;48.746;9.236;2023-05-29T00:49:39;15.80;65.70
5930;DHT22;2990;48.746;9.236;2023-05-29T00:52:06;15.80;64.40
5930;DHT22;2990;48.746;9.236;2023-05-29T00:54:33;15.90;67.30
5930;DHT22;2990;48.746;9.236;2023-05-29T00:56:59;15.80;68.40
5930;DHT22;2990;48.746;9.236;2023-05-29T00:59:27;15.70;70.30
5930;DHT22;2990;48.746;9.236;2023-05-29T01:01:55;15.70;72.90
5930;DHT22;2990;48.746;9.236;2023-05-29T01:04:26;15.70;76.10
5930;DHT22;2990;48.746;9.236;2023-05-29T01:06:52;15.70;78.60
5930;DHT22;2990;48.746;9.236;2023-05-29T01:09:17;15.60;77.90
5930;DHT22;2990;48.746;9.236;2023-05-29T01:28:21;15.30;92.30
5930;DHT22;2990;48.746;9.236;2023-05-29T01:30:50;15.30;93.60
5930;DHT22;2990;48.746;9.236;2023-05-29T01:33:17;15.30;92.10
5930;DHT22;2990;48.746;9.236;2023-05-29T01:35:43;15.30;95.50
5930;DHT22;2990;48.746;9.236;2023-05-29T01:38:08;15.10;99.90
5930;DHT22;2990;48.746;9.236;2023-05-29T01:40:34;15.00;97.40
5930;DHT22;2990;48.746;9.236;2023-05-29T01:43:00;15.10;98.80
5930;DHT22;2990;48.746;9.236;2023-05-29T01:45:26;15.00;99.60
5930;DHT22;2990;48.746;9.236;2023-05-29T01:47:52;15.00;99.90
5930;DHT22;2990;48.746;9.236;2023-05-29T01:50:18;14.90;99.90
5930;DHT22;2990;48.746;9.236;2023-05-29T01:52:44;14.80;99.90
5930;DHT22;2990;48.746;9.236;2023-05-29T01:55:11;14.80;99.90
5930;DHT22;2990;48.746;9.236;2023-05-29T01:57:37;14.70;99.90
5930;DHT22;2990;48.746;9.236;2023-05-29T02:00:03;14.70;99.90
5930;DHT22;2990;48.746;9.236;2023-05-29T02:02:38;14.60;99.90
5930;DHT22;2990;48.746;9.236;2023-05-29T02:05:05;14.60;99.90
5930;DHT22;2990;48.746;9.236;2023-05-29T02:07:31;14.60;99.90
5930;DHT22;2990;48.746;9.236;2023-05-29T02:09:56;14.50;99.90
5930;DHT22;2990;48.746;9.236;2023-05-29T02:12:22;14.50;99.90
5930;DHT22;2990;48.746;9.236;2023-05-29T02:14:47;14.50;99.90
5930;DHT22;2990;48.746;9.236;2023-05-29T02:17:13;14.40;99.90
5930;DHT22;2990;48.746;9.236;2023-05-29T02:19:40;14.40;99.90
5930;DHT22;2990;48.746;9.236;2023-05-29T02:22:06;14.40;99.90
5930;DHT22;2990;48.746;9.236;2023-05-29T02:24:32;14.30;99.90
5930;DHT22;2990;48.746;9.236;2023-05-29T02:26:58;14.30;99.90
5930;DHT22;2990;48.746;9.236;2023-05-29T02:29:23;14.20;99.90
5930;DHT22;2990;48.746;9.236;2023-05-29T02:31:55;14.30;99.90
5930;DHT22;2990;48.746;9.236;2023-05-29T02:34:20;14.20;99.90
5930;DHT22;2990;48.746;9.236;2023-05-29T02:36:50;14.20;99.90
5930;DHT22;2990;48.746;9.236;2023-05-29T02:39:17;14.10;99.90
5930;DHT22;2990;48.746;9.236;2023-05-29T02:41:45;14.10;99.90
5930;DHT22;2990;48.746;9.236;2023-05-29T02:44:29;14.00;99.90
5930;DHT22;2990;48.746;9.236;2023-05-29T02:46:55;14.00;99.90
5930;DHT22;2990;48.746;9.236;2023-05-29T02:49:20;13.90;99.90
5930;DHT22;2990;48.746;9.236;2023-05-29T02:51:49;14.00;99.90
5930;DHT22;2990;48.746;9.236;2023-05-29T02:54:15;13.80;99.90
5930;DHT22;2990;48.746;9.236;2023-05-29T02:56:41;13.90;99.90
5930;DHT22;2990;48.746;9.236;2023-05-29T02:59:06;13.70;99.90
5930;DHT22;2990;48.746;9.236;2023-05-29T03:01:32;13.70;99.90
5930;DHT22;2990;48.746;9.236;2023-05-29T03:03:58;13.60;99.90
5930;DHT22;2990;48.746;9.236;2023-05-29T03:06:24;13.70;99.90
5930;DHT22;2990;48.746;9.236;2023-05-29T03:08:49;13.60;99.90
5930;DHT22;2990;48.746;9.236;2023-05-29T03:11:16;13.50;99.90
5930;DHT22;2990;48.746;9.236;2023-05-29T03:13:42;13.60;99.90
5930;DHT22;2990;48.746;9.236;2023-05-29T03:16:08;13.70;99.90
5930;DHT22;2990;48.746;9.236;2023-05-29T03:18:34;13.50;99.90
5930;DHT22;2990;48.746;9.236;2023-05-29T03:21:00;13.50;99.90
5930;DHT22;2990;48.746;9.236;2023-05-29T03:23:28;13.50;99.90
5930;DHT22;2990;48.746;9.236;2023-05-29T03:25:54;13.40;99.90
5930;DHT22;2990;48.746;9.236;2023-05-29T03:28:20;13.40;99.90
5930;DHT22;2990;48.746;9.236;2023-05-29T03:30:45;13.40;99.90
5930;DHT22;2990;48.746;9.236;2023-05-29T03:33:14;13.40;99.90
5930;DHT22;2990;48.746;9.236;2023-05-29T03:35:40;13.40;99.90
5930;DHT22;2990;48.746;9.236;2023-05-29T03:38:05;13.30;99.90
5930;DHT22;2990;48.746;9.236;2023-05-29T03:40:31;13.30;99.90
5930;DHT22;2990;48.746;9.236;2023-05-29T03:42:56;13.10;99.90
5930;DHT22;2990;48.746;9.236;2023-05-29T03:45:22;13.20;99.90
5930;DHT22;2990;48.746;9.236;2023-05-29T03:47:51;13.30;99.90
5930;DHT22;2990;48.746;9.236;2023-05-29T03:50:16;13.20;99.90
5930;DHT22;2990;48.746;9.236;2023-05-29T03:52:42;13.20;99.90
5930;DHT22;2990;48.746;9.236;2023-05-29T03:55:11;13.20;99.90
5930;DHT22;2990;48.746;9.236;2023-05-29T03:57:40;13.20;99.90
5930;DHT22;2990;48.746;9.236;2023-05-29T04:00:08;13.00;99.90
5930;DHT22;2990;48.746;9.236;2023-05-29T04:02:36;13.10;99.90
5930;DHT22;2990;48.746;9.236;2023-05-29T04:05:03;13.10;99.90
5930;DHT22;2990;48.746;9.236;2023-05-29T04:07:29;13.10;99.90
5930;DHT22;2990;48.746;9.236;2023-05-29T04:09:54;13.10;99.90
5930;DHT22;2990;48.746;9.236;2023-05-29T04:12:22;13.00;99.90
5930;DHT22;2990;48.746;9.236;2023-05-29T04:14:48;13.10;99.90
5930;DHT22;2990;48.746;9.236;2023-05-29T04:17:14;13.20;99.90
5930;DHT22;2990;48.746;9.236;2023-05-29T04:19:39;13.10;99.90
5930;DHT22;2990;48.746;9.236;2023-05-29T04:22:05;13.10;99.90
5930;DHT22;2990;48.746;9.236;2023-05-29T04:24:31;13.20;99.90
5930;DHT22;2990;48.746;9.236;2023-05-29T04:26:57;13.20;99.90
5930;DHT22;2990;48.746;9.236;2023-05-29T04:29:26;13.30;99.90
5930;DHT22;2990;48.746;9.236;2023-05-29T04:31:51;13.40;99.90
5930;DHT22;2990;48.746;9.236;2023-05-29T04:34:17;13.40;99.90
5930;DHT22;2990;48.746;9.236;2023-05-29T04:36:44;13.60;99.90
5930;DHT22;2990;48.746;9.236;2023-05-29T04:39:10;13.70;99.90
5930;DHT22;2990;48.746;9.236;2023-05-29T04:41:36;13.80;99.90
5930;DHT22;2990;48.746;9.236;2023-05-29T04:44:06;13.80;99.90
5930;DHT22;2990;48.746;9.236;2023-05-29T04:46:33;14.00;99.90
5930;DHT22;2990;48.746;9.236;2023-05-29T04:49:00;14.00;99.90
5930;DHT22;2990;48.746;9.236;2023-05-29T04:51:28;13.90;99.90
5930;DHT22;2990;48.746;9.236;2023-05-29T04:53:55;14.20;99.90
5930;DHT22;2990;48.746;9.236;2023-05-29T04:56:22;14.30;99.90
5930;DHT22;2990;48.746;9.236;2023-05-29T04:58:48;14.30;99.90
5930;DHT22;2990;48.746;9.236;2023-05-29T05:01:17;14.40;99.90
5930;DHT22;2990;48.746;9.236;2023-05-29T05:03:43;14.50;99.90
5930;DHT22;2990;48.746;9.236;2023-05-29T05:06:09;14.60;99.90
5930;DHT22;2990;48.746;9.236;2023-05-29T05:08:42;14.70;99.90
5930;DHT22;2990;48.746;9.236;2023-05-29T05:11:08;14.70;99.90
5930;DHT22;2990;48.746;9.236;2023-05-29T05:13:36;14.80;99.90
5930;DHT22;2990;48.746;9.236;2023-05-29T05:16:02;14.80;99.90
5930;DHT22;2990;48.746;9.236;2023-05-29T05:18:27;14.80;99.90
5930;DHT22;2990;48.746;9.236;2023-05-29T05:20:53;14.90;99.90
5930;DHT22;2990;48.746;9.236;2023-05-29T05:23:19;15.00;99.90
5930;DHT22;2990;48.746;9.236;2023-05-29T05:25:44;15.00;99.90
5930;DHT22;2990;48.746;9.236;2023-05-29T05:28:16;15.10;99.90
5930;DHT22;2990;48.746;9.236;2023-05-29T05:30:41;15.10;99.90
5930;DHT22;2990;48.746;9.236;2023-05-29T05:33:10;15.30;99.90
5930;DHT22;2990;48.746;9.236;2023-05-29T05:35:38;15.40;99.90
5930;DHT22;2990;48.746;9.236;2023-05-29T05:38:04;15.40;99.90
5930;DHT22;2990;48.746;9.236;2023-05-29T05:40:31;15.60;99.90
5930;DHT22;2990;48.746;9.236;2023-05-29T05:42:57;15.90;99.90
5930;DHT22;2990;48.746;9.236;2023-05-29T05:45:23;15.90;99.90
5930;DHT22;2990;48.746;9.236;2023-05-29T05:47:52;16.00;99.90
5930;DHT22;2990;48.746;9.236;2023-05-29T05:50:20;15.80;99.90
5930;DHT22;2990;48.746;9.236;2023-05-29T05:52:49;16.00;99.90
5930;DHT22;2990;48.746;9.236;2023-05-29T05:55:17;16.10;99.90
5930;DHT22;2990;48.746;9.236;2023-05-29T05:57:43;16.30;99.90
5930;DHT22;2990;48.746;9.236;2023-05-29T06:00:09;16.40;99.90
5930;DHT22;2990;48.746;9.236;2023-05-29T06:02:37;16.50;99.90
5930;DHT22;2990;48.746;9.236;2023-05-29T06:05:04;16.60;99.90
5930;DHT22;2990;48.746;9.236;2023-05-29T06:07:32;16.60;99.90
5930;DHT22;2990;48.746;9.236;2023-05-29T06:10:01;16.70;99.90
5930;DHT22;2990;48.746;9.236;2023-05-29T06:12:29;16.60;99.90
5930;DHT22;2990;48.746;9.236;2023-05-29T06:14:55;16.60;99.90
5930;DHT22;2990;48.746;9.236;2023-05-29T06:17:23;16.70;99.90
5930;DHT22;2990;48.746;9.236;2023-05-29T06:19:49;16.90;99.90
5930;DHT22;2990;48.746;9.236;2023-05-29T06:22:15;16.80;99.90
5930;DHT22;2990;48.746;9.236;2023-05-29T06:24:44;16.90;99.90
5930;DHT22;2990;48.746;9.236;2023-05-29T06:27:10;16.90;99.90
5930;DHT22;2990;48.746;9.236;2023-05-29T06:29:36;17.10;99.90
5930;DHT22;2990;48.746;9.236;2023-05-29T06:32:01;17.20;99.90
5930;DHT22;2990;48.746;9.236;2023-05-29T06:34:27;17.30;99.90
5930;DHT22;2990;48.746;9.236;2023-05-29T06:36:53;17.30;99.90
5930;DHT22;2990;48.746;9.236;2023-05-29T06:39:21;17.50;99.90
5930;DHT22;2990;48.746;9.236;2023-05-29T06:41:47;17.50;99.90
5930;DHT22;2990;48.746;9.236;2023-05-29T06:44:13;17.60;99.90
5930;DHT22;2990;48.746;9.236;2023-05-29T06:46:38;17.60;99.90
5930;DHT22;2990;48.746;9.236;2023-05-29T06:49:04;17.50;99.90
5930;DHT22;2990;48.746;9.236;2023-05-29T06:51:30;17.60;99.90
5930;DHT22;2990;48.746;9.236;2023-05-29T06:53:57;17.90;99.90
5930;DHT22;2990;48.746;9.236;2023-05-29T06:56:23;18.00;99.90
5930;DHT22;2990;48.746;9.236;2023-05-29T06:58:49;18.10;99.90
5930;DHT22;2990;48.746;9.236;2023-05-29T07:01:15;18.10;99.90
5930;DHT22;2990;48.746;9.236;2023-05-29T07:03:46;18.10;99.90
5930;DHT22;2990;48.746;9.236;2023-05-29T07:06:11;18.10;99.90
5930;DHT22;2990;48.746;9.236;2023-05-29T07:08:37;18.20;99.90
5930;DHT22;2990;48.746;9.236;2023-05-29T07:11:02;18.10;99.90
5930;DHT22;2990;48.746;9.236;2023-05-29T07:13:28;18.30;99.90
5930;DHT22;2990;48.746;9.236;2023-05-29T07:15:54;18.30;99.90
5930;DHT22;2990;48.746;9.236;2023-05-29T07:18:19;18.20;99.90
5930;DHT22;2990;48.746;9.236;2023-05-29T07:20:45;18.30;99.90
5930;DHT22;2990;48.746;9.236;2023-05-29T07:23:11;18.30;99.90
5930;DHT22;2990;48.746;9.236;2023-05-29T07:25:39;18.30;99.90
5930;DHT22;2990;48.746;9.236;2023-05-29T07:28:04;18.30;99.90
5930;DHT22;2990;48.746;9.236;2023-05-29T07:30:32;18.20;99.90
5930;DHT22;2990;48.746;9.236;2023-05-29T07:32:58;18.30;99.90
5930;DHT22;2990;48.746;9.236;2023-05-29T07:35:26;18.40;99.90
5930;DHT22;2990;48.746;9.236;2023-05-29T07:37:52;18.60;99.90
5930;DHT22;2990;48.746;9.236;2023-05-29T07:40:19;18.60;99.90
5930;DHT22;2990;48.746;9.236;2023-05-29T07:42:45;18.60;99.90
5930;DHT22;2990;48.746;9.236;2023-05-29T07:45:10;18.70;99.90
5930;DHT22;2990;48.746;9.236;2023-05-29T07:47:39;18.80;99.90
5930;DHT22;2990;48.746;9.236;2023-05-29T07:50:05;19.00;99.90
5930;DHT22;2990;48.746;9.236;2023-05-29T07:52:32;19.10;99.90
5930;DHT22;2990;48.746;9.236;2023-05-29T07:54:57;19.10;99.90
5930;DHT22;2990;48.746;9.236;2023-05-29T07:57:24;19.20;99.90
5930;DHT22;2990;48.746;9.236;2023-05-29T07:59:50;19.40;99.80
5930;DHT22;2990;48.746;9.236;2023-05-29T08:02:16;19.50;95.60
5930;DHT22;2990;48.746;9.236;2023-05-29T08:04:44;19.60;96.70
5930;DHT22;2990;48.746;9.236;2023-05-29T08:07:13;19.60;99.70
5930;DHT22;2990;48.746;9.236;2023-05-29T08:09:39;19.60;99.70
5930;DHT22;2990;48.746;9.236;2023-05-29T08:12:05;19.70;99.90
5930;DHT22;2990;48.746;9.236;2023-05-29T08:14:31;19.70;88.60
5930;DHT22;2990;48.746;9.236;2023-05-29T08:16:57;19.90;95.90
5930;DHT22;2990;48.746;9.236;2023-05-29T08:19:23;20.10;85.80
5930;DHT22;2990;48.746;9.236;2023-05-29T08:21:49;19.90;85.60
5930;DHT22;2990;48.746;9.236;2023-05-29T08:24:15;20.10;61.10
5930;DHT22;2990;48.746;9.236;2023-05-29T08:26:40;20.20;52.00
5930;DHT22;2990;48.746;9.236;2023-05-29T08:29:09;20.40;5.70
5930;DHT22;2990;48.746;9.236;2023-05-29T08:31:36;20.60;1.00
5930;DHT22;2990;48.746;9.236;2023-05-29T08:34:02;20.80;1.00
5930;DHT22;2990;48.746;9.236;2023-05-29T08:36:28;20.80;2.70
5930;DHT22;2990;48.746;9.236;2023-05-29T08:38:53;21.00;1.00
5930;DHT22;2990;48.746;9.236;2023-05-29T08:41:25;21.00;1.00
5930;DHT22;2990;48.746;9.236;2023-05-29T08:43:52;21.00;1.00
5930;DHT22;2990;48.746;9.236;2023-05-29T08:46:18;21.30;1.00
5930;DHT22;2990;48.746;9.236;2023-05-29T08:48:48;21.50;1.00
5930;DHT22;2990;48.746;9.236;2023-05-29T08:51:20;21.70;1.00
5930;DHT22;2990;48.746;9.236;2023-05-29T08:53:51;21.90;1.00
5930;DHT22;2990;48.746;9.236;2023-05-29T08:56:17;21.90;1.00
5930;DHT22;2990;48.746;9.236;2023-05-29T08:58:44;21.90;1.00
5930;DHT22;2990;48.746;9.236;2023-05-29T09:01:10;22.10;1.00
5930;DHT22;2990;48.746;9.236;2023-05-29T09:03:36;22.00;1.00
5930;DHT22;2990;48.746;9.236;2023-05-29T09:06:04;22.00;1.00
5930;DHT22;2990;48.746;9.236;2023-05-29T09:08:33;22.20;1.00
5930;DHT22;2990;48.746;9.236;2023-05-29T09:11:01;22.20;1.00
5930;DHT22;2990;48.746;9.236;2023-05-29T09:13:27;22.30;1.00
5930;DHT22;2990;48.746;9.236;2023-05-29T09:15:58;22.40;1.00
5930;DHT22;2990;48.746;9.236;2023-05-29T09:18:29;22.40;1.00
5930;DHT22;2990;48.746;9.236;2023-05-29T09:20:55;22.50;1.00
5930;DHT22;2990;48.746;9.236;2023-05-29T09:23:21;22.50;1.00
5930;DHT22;2990;48.746;9.236;2023-05-29T09:25:52;22.70;1.00
5930;DHT22;2990;48.746;9.236;2023-05-29T09:28:20;22.60;1.00
5930;DHT22;2990;48.746;9.236;2023-05-29T09:30:48;22.50;1.00
5930;DHT22;2990;48.746;9.236;2023-05-29T09:33:17;22.60;1.00
5930;DHT22;2990;48.746;9.236;2023-05-29T09:35:51;22.60;1.00
5930;DHT22;2990;48.746;9.236;2023-05-29T09:38:18;22.90;1.00
5930;DHT22;2990;48.746;9.236;2023-05-29T09:40:51;23.10;1.00
5930;DHT22;2990;48.746;9.236;2023-05-29T09:43:25;23.00;1.00
5930;DHT22;2990;48.746;9.236;2023-05-29T09:45:58;23.20;1.00
5930;DHT22;2990;48.746;9.236;2023-05-29T09:48:24;23.30;1.00
5930;DHT22;2990;48.746;9.236;2023-05-29T09:50:51;23.40;1.00
5930;DHT22;2990;48.746;9.236;2023-05-29T09:53:22;23.30;1.00
5930;DHT22;2990;48.746;9.236;2023-05-29T09:55:53;23.50;1.00
5930;DHT22;2990;48.746;9.236;2023-05-29T09:58:22;23.70;1.00
5930;DHT22;2990;48.746;9.236;2023-05-29T10:00:49;23.80;1.00
5930;DHT22;2990;48.746;9.236;2023-05-29T10:03:16;24.00;1.00
5930;DHT22;2990;48.746;9.236;2023-05-29T10:05:47;23.70;1.00
5930;DHT22;2990;48.746;9.236;2023-05-29T10:08:17;23.90;1.00
5930;DHT22;2990;48.746;9.236;2023-05-29T10:10:45;24.00;1.00
5930;DHT22;2990;48.746;9.236;2023-05-29T10:13:15;24.30;1.00
5930;DHT22;2990;48.746;9.236;2023-05-29T10:15:45;24.30;1.00
5930;DHT22;2990;48.746;9.236;2023-05-29T10:18:16;24.40;1.00
5930;DHT22;2990;48.746;9.236;2023-05-29T10:20:50;24.60;1.00
5930;DHT22;2990;48.746;9.236;2023-05-29T10:23:25;24.80;1.00
5930;DHT22;2990;48.746;9.236;2023-05-29T10:25:53;24.70;1.00
5930;DHT22;2990;48.746;9.236;2023-05-29T10:28:25;24.50;1.00
5930;DHT22;2990;48.746;9.236;2023-05-29T10:31:00;24.60;1.00
5930;DHT22;2990;48.746;9.236;2023-05-29T10:33:37;24.50;1.00
5930;DHT22;2990;48.746;9.236;2023-05-29T10:36:12;24.40;1.00
5930;DHT22;2990;48.746;9.236;2023-05-29T10:38:41;24.30;1.00
5930;DHT22;2990;48.746;9.236;2023-05-29T10:41:29;24.50;1.00
5930;DHT22;2990;48.746;9.236;2023-05-29T10:43:59;24.50;1.00
5930;DHT22;2990;48.746;9.236;2023-05-29T10:49:20;24.70;1.00
5930;DHT22;2990;48.746;9.236;2023-05-29T10:51:49;24.70;1.00
5930;DHT22;2990;48.746;9.236;2023-05-29T10:54:25;24.80;1.00
5930;DHT22;2990;48.746;9.236;2023-05-29T10:56:56;24.80;1.00
5930;DHT22;2990;48.746;9.236;2023-05-29T10:59:25;24.90;1.00
5930;DHT22;2990;48.746;9.236;2023-05-29T11:01:53;25.10;1.00
5930;DHT22;2990;48.746;9.236;2023-05-29T11:06:53;24.90;1.00
5930;DHT22;2990;48.746;9.236;2023-05-29T11:09:32;25.10;1.00
5930;DHT22;2990;48.746;9.236;2023-05-29T11:12:29;25.00;1.00
5930;DHT22;2990;48.746;9.236;2023-05-29T11:15:06;24.60;1.00
5930;DHT22;2990;48.746;9.236;2023-05-29T11:20:16;24.90;1.00
5930;DHT22;2990;48.746;9.236;2023-05-29T11:23:05;24.80;1.00
5930;DHT22;2990;48.746;9.236;2023-05-29T11:25:40;25.10;1.00
5930;DHT22;2990;48.746;9.236;2023-05-29T11:28:14;25.40;1.00
5930;DHT22;2990;48.746;9.236;2023-05-29T11:30:48;25.50;1.00
5930;DHT22;2990;48.746;9.236;2023-05-29T11:33:23;25.20;1.00
5930;DHT22;2990;48.746;9.236;2023-05-29T11:35:58;25.30;1.00
5930;DHT22;2990;48.746;9.236;2023-05-29T11:38:33;25.30;1.00
5930;DHT22;2990;48.746;9.236;2023-05-29T11:41:01;25.20;1.00
5930;DHT22;2990;48.746;9.236;2023-05-29T11:43:26;25.30;1.00
5930;DHT22;2990;48.746;9.236;2023-05-29T11:45:55;25.30;1.00
5930;DHT22;2990;48.746;9.236;2023-05-29T11:48:21;25.20;1.00
5930;DHT22;2990;48.746;9.236;2023-05-29T11:50:48;25.00;1.00
5930;DHT22;2990;48.746;9.236;2023-05-29T11:53:14;24.70;1.00
5930;DHT22;2990;48.746;9.236;2023-05-29T11:55:40;25.20;1.00
5930;DHT22;2990;48.746;9.236;2023-05-29T12:00:47;25.20;1.00
5930;DHT22;2990;48.746;9.236;2023-05-29T12:03:16;25.10;1.00
5930;DHT22;2990;48.746;9.236;2023-05-29T12:05:48;25.20;1.00
5930;DHT22;2990;48.746;9.236;2023-05-29T12:08:14;25.10;1.00
5930;DHT22;2990;48.746;9.236;2023-05-29T12:11:26;25.30;1.00
5930;DHT22;2990;48.746;9.236;2023-05-29T12:14:27;25.00;1.00
5930;DHT22;2990;48.746;9.236;2023-05-29T12:16:55;25.10;1.00
5930;DHT22;2990;48.746;9.236;2023-05-29T12:22:51;25.00;1.00
5930;DHT22;2990;48.746;9.236;2023-05-29T12:25:22;25.10;1.00
5930;DHT22;2990;48.746;9.236;2023-05-29T12:27:50;25.20;1.00
5930;DHT22;2990;48.746;9.236;2023-05-29T12:30:27;25.30;1.00
5930;DHT22;2990;48.746;9.236;2023-05-29T12:32:54;25.30;1.00
5930;DHT22;2990;48.746;9.236;2023-05-29T12:35:27;25.30;1.00
5930;DHT22;2990;48.746;9.236;2023-05-29T12:38:05;25.40;1.00
5930;DHT22;2990;48.746;9.236;2023-05-29T12:40:37;25.20;1.00
5930;DHT22;2990;48.746;9.236;2023-05-29T12:43:07;25.40;1.00
5930;DHT22;2990;48.746;9.236;2023-05-29T12:45:37;25.60;1.00
5930;DHT22;2990;48.746;9.236;2023-05-29T12:48:05;25.40;1.00
5930;DHT22;2990;48.746;9.236;2023-05-29T12:50:41;25.20;1.00
5930;DHT22;2990;48.746;9.236;2023-05-29T12:53:28;25.20;1.00
5930;DHT22;2990;48.746;9.236;2023-05-29T12:55:57;25.50;1.00
5930;DHT22;2990;48.746;9.236;2023-05-29T12:58:27;25.50;1.00
5930;DHT22;2990;48.746;9.236;2023-05-29T13:00:57;25.30;1.00
5930;DHT22;2990;48.746;9.236;2023-05-29T13:03:35;25.70;1.00
5930;DHT22;2990;48.746;9.236;2023-05-29T13:06:17;25.70;1.00
5930;DHT22;2990;48.746;9.236;2023-05-29T13:08:46;25.70;1.00
5930;DHT22;2990;48.746;9.236;2023-05-29T13:11:28;26.10;1.00
5930;DHT22;2990;48.746;9.236;2023-05-29T13:14:03;26.20;1.00
5930;DHT22;2990;48.746;9.236;2023-05-29T13:16:39;26.00;1.00
5930;DHT22;2990;48.746;9.236;2023-05-29T13:19:16;26.00;1.00
5930;DHT22;2990;48.746;9.236;2023-05-29T13:21:45;25.90;1.00
5930;DHT22;2990;48.746;9.236;2023-05-29T13:24:16;25.90;1.00
5930;DHT22;2990;48.746;9.236;2023-05-29T13:26:42;26.00;1.00
5930;DHT22;2990;48.746;9.236;2023-05-29T13:29:07;26.00;1.00
5930;DHT22;2990;48.746;9.236;2023-05-29T13:31:33;25.80;1.00
5930;DHT22;2990;48.746;9.236;2023-05-29T13:33:59;25.60;1.00
5930;DHT22;2990;48.746;9.236;2023-05-29T13:36:26;25.60;1.00
5930;DHT22;2990;48.746;9.236;2023-05-29T13:38:51;25.20;1.00
5930;DHT22;2990;48.746;9.236;2023-05-29T13:41:20;25.70;1.00
5930;DHT22;2990;48.746;9.236;2023-05-29T13:43:48;25.70;1.00
5930;DHT22;2990;48.746;9.236;2023-05-29T13:46:14;25.30;1.00
5930;DHT22;2990;48.746;9.236;2023-05-29T13:48:46;25.50;1.00
5930;DHT22;2990;48.746;9.236;2023-05-29T13:51:14;25.30;1.00
5930;DHT22;2990;48.746;9.236;2023-05-29T13:54:05;25.50;1.00
5930;DHT22;2990;48.746;9.236;2023-05-29T13:56:31;25.70;1.00
5930;DHT22;2990;48.746;9.236;2023-05-29T13:58:59;26.00;1.00
5930;DHT22;2990;48.746;9.236;2023-05-29T14:04:10;25.70;1.00
5930;DHT22;2990;48.746;9.236;2023-05-29T14:06:51;25.60;1.00
5930;DHT22;2990;48.746;9.236;2023-05-29T14:09:17;25.50;1.00
5930;DHT22;2990;48.746;9.236;2023-05-29T14:11:51;25.20;1.00
5930;DHT22;2990;48.746;9.236;2023-05-29T14:14:22;25.30;1.00
5930;DHT22;2990;48.746;9.236;2023-05-29T14:16:51;25.40;1.00
5930;DHT22;2990;48.746;9.236;2023-05-29T14:19:21;25.40;1.00
5930;DHT22;2990;48.746;9.236;2023-05-29T14:21:52;25.30;1.00
5930;DHT22;2990;48.746;9.236;2023-05-29T14:24:20;25.50;1.00
5930;DHT22;2990;48.746;9.236;2023-05-29T14:26:46;25.40;1.00
5930;DHT22;2990;48.746;9.236;2023-05-29T14:29:23;25.30;1.00
5930;DHT22;2990;48.746;9.236;2023-05-29T14:31:51;25.20;1.00
5930;DHT22;2990;48.746;9.236;2023-05-29T14:34:19;25.20;1.00
5930;DHT22;2990;48.746;9.236;2023-05-29T14:39:53;25.50;1.00
5930;DHT22;2990;48.746;9.236;2023-05-29T14:42:19;25.70;1.00
5930;DHT22;2990;48.746;9.236;2023-05-29T14:44:48;25.70;1.00
5930;DHT22;2990;48.746;9.236;2023-05-29T14:47:17;25.70;1.00
5930;DHT22;2990;48.746;9.236;2023-05-29T14:49:49;25.90;1.00
5930;DHT22;2990;48.746;9.236;2023-05-29T14:52:20;25.70;1.00
5930;DHT22;2990;48.746;9.236;2023-05-29T14:54:46;25.60;1.00
5930;DHT22;2990;48.746;9.236;2023-05-29T14:57:19;25.50;1.00
5930;DHT22;2990;48.746;9.236;2023-05-29T14:59:48;25.30;1.00
5930;DHT22;2990;48.746;9.236;2023-05-29T15:02:15;25.30;1.00
5930;DHT22;2990;48.746;9.236;2023-05-29T15:04:41;25.50;1.00
5930;DHT22;2990;48.746;9.236;2023-05-29T15:07:13;25.60;1.00
5930;DHT22;2990;48.746;9.236;2023-05-29T15:09:48;25.60;1.00
5930;DHT22;2990;48.746;9.236;2023-05-29T15:12:17;25.50;1.00
5930;DHT22;2990;48.746;9.236;2023-05-29T15:14:52;25.30;1.00
5930;DHT22;2990;48.746;9.236;2023-05-29T15:17:55;25.30;1.00
5930;DHT22;2990;48.746;9.236;2023-05-29T15:20:25;25.50;1.00
5930;DHT22;2990;48.746;9.236;2023-05-29T15:22:54;25.70;1.00
5930;DHT22;2990;48.746;9.236;2023-05-29T15:25:21;25.70;1.00
5930;DHT22;2990;48.746;9.236;2023-05-29T15:27:55;26.20;1.00
5930;DHT22;2990;48.746;9.236;2023-05-29T15:30:21;26.60;1.00
5930;DHT22;2990;48.746;9.236;2023-05-29T15:32:56;26.70;1.00
5930;DHT22;2990;48.746;9.236;2023-05-29T15:35:21;27.00;1.00
5930;DHT22;2990;48.746;9.236;2023-05-29T15:38:08;27.90;1.00
5930;DHT22;2990;48.746;9.236;2023-05-29T15:40:41;28.30;1.00
5930;DHT22;2990;48.746;9.236;2023-05-29T15:43:12;27.90;1.00
5930;DHT22;2990;48.746;9.236;2023-05-29T15:45:51;27.10;1.00
5930;DHT22;2990;48.746;9.236;2023-05-29T15:48:29;26.70;1.00
5930;DHT22;2990;48.746;9.236;2023-05-29T15:50:54;27.20;1.00
5930;DHT22;2990;48.746;9.236;2023-05-29T15:53:23;27.00;1.00
5930;DHT22;2990;48.746;9.236;2023-05-29T15:55:54;26.20;1.00
5930;DHT22;2990;48.746;9.236;2023-05-29T15:58:25;26.30;1.00
5930;DHT22;2990;48.746;9.236;2023-05-29T16:00:52;25.90;1.00
5930;DHT22;2990;48.746;9.236;2023-05-29T16:03:17;25.70;1.00
5930;DHT22;2990;48.746;9.236;2023-05-29T16:05:45;25.50;1.00
5930;DHT22;2990;48.746;9.236;2023-05-29T16:08:11;25.70;1.00
5930;DHT22;2990;48.746;9.236;2023-05-29T16:10:38;25.70;1.00
5930;DHT22;2990;48.746;9.236;2023-05-29T16:13:06;25.80;1.00
5930;DHT22;2990;48.746;9.236;2023-05-29T16:15:32;26.00;1.00
5930;DHT22;2990;48.746;9.236;2023-05-29T16:17:58;26.50;1.00
5930;DHT22;2990;48.746;9.236;2023-05-29T16:20:27;26.90;1.00
5930;DHT22;2990;48.746;9.236;2023-05-29T16:22:56;26.50;1.00
5930;DHT22;2990;48.746;9.236;2023-05-29T16:25:22;26.10;1.00
5930;DHT22;2990;48.746;9.236;2023-05-29T16:27:48;25.70;1.00
5930;DHT22;2990;48.746;9.236;2023-05-29T16:30:25;25.00;1.00
5930;DHT22;2990;48.746;9.236;2023-05-29T16:32:54;24.50;1.00
5930;DHT22;2990;48.746;9.236;2023-05-29T16:35:20;24.40;1.00
5930;DHT22;2990;48.746;9.236;2023-05-29T16:37:49;24.20;1.00
5930;DHT22;2990;48.746;9.236;2023-05-29T16:40:15;24.10;1.00
5930;DHT22;2990;48.746;9.236;2023-05-29T16:42:43;23.70;1.00
5930;DHT22;2990;48.746;9.236;2023-05-29T16:45:09;23.90;1.00
5930;DHT22;2990;48.746;9.236;2023-05-29T16:47:38;23.80;1.00
5930;DHT22;2990;48.746;9.236;2023-05-29T16:50:04;23.90;1.00
5930;DHT22;2990;48.746;9.236;2023-05-29T16:52:29;23.80;1.00
5930;DHT22;2990;48.746;9.236;2023-05-29T16:54:58;23.80;1.00